Rugby, North Dakota
Current Conditions -  °F | °C
As of 8:15 AM on Saturday 20 Dec 2014 (Local Time) from KRUG Reporting Station
Moderate Fog Moderate Fog  
Wind Chill: -10°   Ceiling: 100
Heat Index: -5°   Visibility: 0.5mi
Dew Point: -5°   Wind: 8mph
Humidity: 100%   Direction: 130°SE
Pressure: 29.92"   Gusts: NA
Location:  48.37°N, 100°W
Report Text: KRUG 201415Z AUTO 13007KT 1/2SM FZFG OVC001 M05/M05 A2992 RMK AO2
Loading
Personal Weather Stations






























Interactive Weather Map New forecast layout! Learn more

10-Day Weather Forecast

Advertisements
Track Severe Weather on mobile